createdAt,value
2023-03-06T00:01:54.509Z,11.82
2023-03-06T00:06:56.311Z,13.38
2023-03-06T00:11:58.066Z,13.70
2023-03-06T00:16:59.800Z,13.30
2023-03-06T00:22:03.194Z,12.70
2023-03-06T00:27:05.185Z,11.93
2023-03-06T00:32:07.529Z,12.52
2023-03-06T00:37:09.350Z,12.27
2023-03-06T00:42:11.122Z,11.27
2023-03-06T00:47:13.566Z,11.13
2023-03-06T00:52:15.610Z,11.05
2023-03-06T00:57:17.470Z,11.15
2023-03-06T01:02:19.287Z,12.43
2023-03-06T01:07:21.503Z,10.48
2023-03-06T01:12:23.651Z,11.50
2023-03-06T01:17:31.710Z,12.65
2023-03-06T01:22:33.576Z,11.20
2023-03-06T01:27:35.808Z,11.88
2023-03-06T01:32:37.646Z,11.43
2023-03-06T01:37:39.945Z,10.63
2023-03-06T01:42:42.976Z,12.20
2023-03-06T01:47:45.192Z,11.52
2023-03-06T01:52:51.682Z,12.55
2023-03-06T01:57:57.869Z,12.10
2023-03-06T02:03:10.638Z,12.10
2023-03-06T02:08:16.104Z,11.82
2023-03-06T02:13:17.874Z,11.90
2023-03-06T02:18:19.673Z,12.32
2023-03-06T02:23:50.533Z,11.50
2023-03-06T02:28:52.274Z,12.02
2023-03-06T02:34:04.142Z,12.50
2023-03-06T02:39:06.338Z,11.93
2023-03-06T02:44:08.096Z,12.32
2023-03-06T02:49:10.181Z,11.70
2023-03-06T02:54:11.959Z,12.15
2023-03-06T02:59:13.694Z,12.18
2023-03-06T03:04:15.450Z,12.43
2023-03-06T03:09:17.487Z,13.85
2023-03-06T03:14:19.205Z,11.35
2023-03-06T03:19:20.977Z,12.32
2023-03-06T03:24:22.733Z,11.32
2023-03-06T03:29:24.988Z,10.90
2023-03-06T03:34:27.371Z,10.65
2023-03-06T03:39:29.431Z,10.68
2023-03-06T03:44:31.213Z,11.65
2023-03-06T03:49:33.182Z,11.35
2023-03-06T03:54:35.085Z,10.93
2023-03-06T03:59:36.874Z,11.48
2023-03-06T04:04:38.750Z,12.57
2023-03-06T04:09:40.513Z,12.32
2023-03-06T04:14:42.330Z,12.63
2023-03-06T04:19:44.073Z,10.98
2023-03-06T04:24:48.846Z,12.48
2023-03-06T04:29:50.670Z,11.43
2023-03-06T04:34:52.489Z,12.73
2023-03-06T04:39:54.725Z,11.85
2023-03-06T04:44:56.504Z,12.50
2023-03-06T04:49:58.214Z,12.00
2023-03-06T04:54:59.961Z,11.48
2023-03-06T05:00:02.109Z,11.38
2023-03-06T05:05:04.955Z,11.35
2023-03-06T05:10:07.641Z,11.57
2023-03-06T05:15:11.044Z,11.32
2023-03-06T05:20:13.902Z,11.50
2023-03-06T05:25:15.660Z,12.98
2023-03-06T05:30:17.564Z,11.45
2023-03-06T05:35:22.577Z,10.15
2023-03-06T05:40:24.408Z,12.65
2023-03-06T05:45:26.149Z,12.27
2023-03-06T05:50:28.012Z,12.02
2023-03-06T05:55:29.986Z,12.18
2023-03-06T06:00:31.741Z,11.98
2023-03-06T06:05:33.548Z,12.60
2023-03-06T06:10:35.309Z,12.07
2023-03-06T06:15:39.126Z,14.23
2023-03-06T06:20:40.910Z,14.25
2023-03-06T06:25:42.703Z,18.13
2023-03-06T06:30:44.432Z,19.15
2023-03-06T06:35:46.353Z,23.40
2023-03-06T06:41:19.098Z,19.77
2023-03-06T06:46:39.744Z,20.77
2023-03-06T06:51:35.588Z,21.55
2023-03-06T06:56:37.457Z,18.83
2023-03-06T07:01:39.162Z,18.23
2023-03-06T07:06:41.907Z,18.58
2023-03-06T07:11:43.746Z,17.30
2023-03-06T07:16:45.478Z,15.40
2023-03-06T07:21:47.594Z,16.00
2023-03-06T07:26:49.526Z,15.80
2023-03-06T07:31:52.664Z,13.45
2023-03-06T07:36:55.314Z,17.13
2023-03-06T07:41:58.606Z,13.32
2023-03-06T07:47:00.412Z,11.43
2023-03-06T07:52:02.411Z,9.43
2023-03-06T07:57:07.188Z,9.07
2023-03-06T08:02:11.702Z,9.07
2023-03-06T08:07:13.584Z,9.98
2023-03-06T08:12:16.652Z,9.85
2023-03-06T08:17:18.633Z,10.00
2023-03-06T08:22:20.788Z,9.48
2023-03-06T08:27:25.725Z,10.77
2023-03-06T08:32:28.305Z,8.95
2023-03-06T08:37:30.236Z,9.30
2023-03-06T08:42:32.724Z,9.27
2023-03-06T08:47:35.875Z,9.38
2023-03-06T08:52:37.582Z,8.77
2023-03-06T08:57:39.386Z,8.35
2023-03-06T09:02:41.272Z,9.55
2023-03-06T09:07:43.222Z,8.43
2023-03-06T09:12:51.350Z,10.80
2023-03-06T09:17:54.465Z,8.90
2023-03-06T09:22:56.475Z,10.13
2023-03-06T09:28:10.475Z,9.93
2023-03-06T09:33:13.353Z,10.18
2023-03-06T09:38:15.266Z,9.75
2023-03-06T09:43:30.790Z,11.35
2023-03-06T09:48:44.051Z,10.98
2023-03-06T09:54:04.045Z,11.55
2023-03-06T09:59:13.275Z,10.93
2023-03-06T10:04:26.932Z,11.40
2023-03-06T10:10:09.046Z,13.13
2023-03-06T10:15:19.333Z,14.10
2023-03-06T10:20:34.086Z,18.85
2023-03-06T10:25:55.068Z,15.55
2023-03-06T10:31:01.478Z,19.10
2023-03-06T10:36:04.641Z,12.35
2023-03-06T10:41:08.441Z,10.82
2023-03-06T10:46:26.878Z,11.68
2023-03-06T10:51:30.348Z,12.95
2023-03-06T10:56:41.687Z,13.00
2023-03-06T11:01:45.255Z,12.13
2023-03-06T11:12:23.296Z,12.20
2023-03-06T11:17:32.146Z,10.00
2023-03-06T11:22:35.252Z,9.20
2023-03-06T11:27:42.813Z,9.93
2023-03-06T11:33:33.369Z,9.77
2023-03-06T11:38:53.501Z,10.52
2023-03-06T11:44:26.619Z,9.05
2023-03-06T11:54:57.358Z,9.88
2023-03-06T12:00:02.523Z,9.15
2023-03-06T12:05:21.298Z,9.43
2023-03-06T12:10:38.630Z,9.60
2023-03-06T12:15:49.166Z,9.95
2023-03-06T12:21:03.434Z,10.70
2023-03-06T12:26:35.780Z,10.43
2023-03-06T12:32:17.008Z,9.03
2023-03-06T12:37:28.200Z,10.60
2023-03-06T12:42:42.650Z,10.32
2023-03-06T12:47:47.251Z,9.68
2023-03-06T12:52:49.638Z,9.68
2023-03-06T12:57:52.856Z,9.55
2023-03-06T13:03:00.137Z,8.85
2023-03-06T13:08:51.323Z,8.15
2023-03-06T13:13:53.482Z,8.98
2023-03-06T13:19:03.061Z,8.60
2023-03-06T13:24:06.243Z,7.93
2023-03-06T13:29:36.288Z,8.75
2023-03-06T13:34:47.310Z,9.57
2023-03-06T13:39:55.107Z,8.90
2023-03-06T13:45:07.156Z,9.00
2023-03-06T13:50:45.052Z,9.00
2023-03-06T13:56:21.882Z,8.48
2023-03-06T14:02:02.004Z,11.02
2023-03-06T14:07:23.861Z,9.63
2023-03-06T14:12:38.265Z,8.77
2023-03-06T14:17:55.592Z,8.68
2023-03-06T14:23:16.522Z,7.82
2023-03-06T14:28:33.440Z,8.85
2023-03-06T14:34:01.811Z,8.50
2023-03-06T14:39:32.641Z,8.93
2023-03-06T14:44:34.845Z,7.78
2023-03-06T14:49:36.822Z,7.60
2023-03-06T14:54:43.738Z,8.38
2023-03-06T14:59:53.137Z,8.00
2023-03-06T15:05:00.893Z,8.25
2023-03-06T15:10:05.021Z,8.65
2023-03-06T15:15:10.705Z,7.40
2023-03-06T15:20:43.705Z,9.77
2023-03-06T15:25:56.548Z,7.97
2023-03-06T15:31:23.019Z,8.55
2023-03-06T15:36:32.273Z,7.82
2023-03-06T15:41:38.874Z,9.57
2023-03-06T15:46:41.878Z,8.57
2023-03-06T15:51:43.908Z,9.55
2023-03-06T15:56:48.905Z,8.88
2023-03-06T16:01:51.670Z,10.10
2023-03-06T16:06:53.468Z,9.90
2023-03-06T16:11:55.260Z,11.40
2023-03-06T16:16:57.576Z,11.85
2023-03-06T16:21:59.911Z,14.32
2023-03-06T16:27:02.912Z,10.20
2023-03-06T16:32:05.489Z,12.35
2023-03-06T16:37:11.334Z,8.98
2023-03-06T16:42:13.182Z,8.65
2023-03-06T16:47:15.283Z,9.20
2023-03-06T16:52:17.804Z,8.75
2023-03-06T16:57:19.650Z,9.40
2023-03-06T17:02:21.443Z,8.38
2023-03-06T17:07:24.882Z,8.65
2023-03-06T17:12:26.624Z,8.95
2023-03-06T17:17:28.648Z,8.75
2023-03-06T17:22:33.742Z,10.93
2023-03-06T17:27:36.635Z,9.52
2023-03-06T17:32:41.278Z,12.30
2023-03-06T17:37:45.290Z,10.18
2023-03-06T17:42:47.381Z,11.95
2023-03-06T17:47:53.261Z,10.85
2023-03-06T17:52:55.338Z,11.85
2023-03-06T17:57:57.434Z,11.43
2023-03-06T18:02:59.817Z,11.52
2023-03-06T18:08:01.633Z,11.40
2023-03-06T18:13:03.441Z,10.73
2023-03-06T18:18:05.312Z,12.40
2023-03-06T18:23:07.393Z,12.02
2023-03-06T18:28:09.905Z,11.82
2023-03-06T18:33:11.616Z,10.20
2023-03-06T18:38:13.717Z,11.02
2023-03-06T18:43:15.580Z,12.50
2023-03-06T18:48:17.275Z,10.63
2023-03-06T18:53:20.216Z,10.40
2023-03-06T18:58:22.452Z,10.10
2023-03-06T19:03:24.562Z,9.90
2023-03-06T19:08:26.422Z,9.43
2023-03-06T19:13:28.190Z,10.95
2023-03-06T19:18:30.521Z,13.20
2023-03-06T19:23:32.491Z,11.32
2023-03-06T19:28:36.516Z,9.00
2023-03-06T19:33:38.697Z,10.23
2023-03-06T19:38:41.161Z,11.48
2023-03-06T19:43:43.892Z,10.45
2023-03-06T19:48:46.411Z,10.52
2023-03-06T19:53:48.490Z,10.60
2023-03-06T19:58:51.151Z,10.23
2023-03-06T20:04:00.993Z,11.73
2023-03-06T20:09:05.816Z,10.18
2023-03-06T20:14:09.572Z,10.88
2023-03-06T20:19:12.133Z,9.63
2023-03-06T20:24:16.983Z,9.82
2023-03-06T20:29:19.262Z,9.30
2023-03-06T20:34:21.485Z,10.02
2023-03-06T20:39:23.266Z,9.15
2023-03-06T20:44:25.080Z,9.48
2023-03-06T20:49:27.432Z,13.27
2023-03-06T20:54:29.248Z,10.55
2023-03-06T20:59:31.509Z,10.15
2023-03-06T21:04:33.314Z,10.13
2023-03-06T21:09:37.983Z,9.68
2023-03-06T21:14:40.044Z,10.70
2023-03-06T21:19:41.842Z,9.98
2023-03-06T21:24:44.136Z,9.38
2023-03-06T21:29:46.507Z,10.13
2023-03-06T21:34:48.869Z,11.05
2023-03-06T21:39:50.831Z,10.43
2023-03-06T21:44:53.438Z,10.80
2023-03-06T21:49:55.159Z,9.35
2023-03-06T21:54:57.153Z,11.60
2023-03-06T21:59:59.640Z,9.63
2023-03-06T22:05:01.397Z,9.57
2023-03-06T22:10:04.767Z,10.15
2023-03-06T22:15:07.338Z,9.52
2023-03-06T22:20:10.290Z,9.80
2023-03-06T22:25:12.330Z,9.70
2023-03-06T22:30:14.327Z,11.07
2023-03-06T22:35:16.137Z,11.75
2023-03-06T22:40:18.008Z,14.13
2023-03-06T22:45:20.035Z,10.38
2023-03-06T22:50:21.864Z,9.50
2023-03-06T22:55:23.905Z,9.25
2023-03-06T23:00:25.645Z,9.25
2023-03-06T23:05:29.523Z,8.25
2023-03-06T23:10:31.328Z,8.20
2023-03-06T23:15:35.847Z,8.60
2023-03-06T23:20:42.765Z,7.50
2023-03-06T23:25:44.786Z,8.45
2023-03-06T23:30:46.836Z,8.00
2023-03-06T23:35:48.656Z,8.13
2023-03-06T23:40:50.868Z,8.07
2023-03-06T23:45:56.031Z,8.88
2023-03-06T23:50:58.538Z,8.38
2023-03-06T23:56:00.498Z,8.57
